Time;durP1;ratioP1;P1;durP2;ratioP2;P2;SDS_P1;SDS_P2;PMS_P1;PMS_P2;Temp;Humidity;BMP_temperature;BMP_pressure;BME280_temperature;BME280_humidity;BME280_pressure;Samples;Min_cycle;Max_cycle;Signal;HPM_P1;HPM_P2
2022/04/17 00:02:08;;;;;;;;;;;8.20;96.00;;;;;;5167073;23;19909;-80
2022/04/17 00:04:40;;;;;;;;;;;8.20;96.80;;;;;;5015797;28;19926;-82
2022/04/17 00:07:08;;;;;;;;;;;9.00;96.50;;;;;;5013938;28;19918;-81
2022/04/17 00:09:43;;;;;;;;;;;8.30;96.60;;;;;;5014862;28;19914;-82
2022/04/17 00:14:43;;;;;;;;;;;7.50;96.20;;;;;;5080075;23;19949;-82
2022/04/17 00:17:27;;;;;;;;;;;8.70;96.50;;;;;;5024144;23;19913;-82
2022/04/17 00:22:28;;;;;;;;;;;8.10;96.60;;;;;;4991580;28;19932;-84
2022/04/17 00:25:09;;;;;;;;;;;7.40;96.40;;;;;;4972579;28;19914;-83
2022/04/17 00:27:44;;;;;;;;;;;8.10;96.80;;;;;;4998819;28;19977;-84
2022/04/17 00:32:57;;;;;;;;;;;6.40;96.40;;;;;;5147711;23;19933;-83
2022/04/17 00:35:25;;;;;;;;;;;8.40;96.40;;;;;;5006412;28;19917;-83
2022/04/17 00:38:04;;;;;;;;;;;7.90;97.40;;;;;;5026178;28;19976;-82
2022/04/17 00:40:39;;;;;;;;;;;9.20;97.10;;;;;;5035914;28;19965;-83
2022/04/17 00:48:06;;;;;;;;;;;7.60;98.10;;;;;;4991683;28;19914;-83
2022/04/17 00:50:36;;;;;;;;;;;7.80;99.70;;;;;;4977823;28;20522;-81
2022/04/17 00:53:31;;;;;;;;;;;6.00;99.20;;;;;;4979830;28;20180;-82
2022/04/17 00:56:08;;;;;;;;;;;6.20;99.30;;;;;;4937099;29;19906;-81
2022/04/17 00:58:36;;;;;;;;;;;8.00;99.90;;;;;;4920223;29;19922;-82
2022/04/17 01:06:21;;;;;;;;;;;7.30;99.80;;;;;;5042922;22;19936;-83
2022/04/17 01:09:00;;;;;;;;;;;9.10;99.90;;;;;;5020013;28;19932;-84
2022/04/17 01:11:26;;;;;;;;;;;10.10;99.90;;;;;;5018818;28;19916;-83
2022/04/17 01:14:08;;;;;;;;;;;7.40;99.40;;;;;;5020155;28;19914;-81
2022/04/17 01:19:23;;;;;;;;;;;7.50;99.70;;;;;;5148733;22;19928;-81
2022/04/17 01:22:07;;;;;;;;;;;9.50;99.90;;;;;;4998622;28;19914;-82
2022/04/17 01:27:46;;;;;;;;;;;6.30;98.00;;;;;;5010819;28;19917;-81
2022/04/17 01:31:03;;;;;;;;;;;7.80;97.50;;;;;;5010210;23;19922;-84
2022/04/17 01:33:35;;;;;;;;;;;9.20;97.40;;;;;;4967254;23;19961;-82
2022/04/17 01:36:01;;;;;;;;;;;7.80;96.70;;;;;;4979304;28;19910;-83
2022/04/17 01:38:28;;;;;;;;;;;9.80;97.10;;;;;;5007048;23;19922;-84
2022/04/17 01:41:03;;;;;;;;;;;4.70;95.20;;;;;;4996921;28;19902;-82
2022/04/17 01:43:37;;;;;;;;;;;7.30;95.70;;;;;;4999230;28;19898;-83
2022/04/17 01:56:16;;;;;;;;;;;7.50;95.90;;;;;;5085764;23;19925;-83
2022/04/17 01:58:45;;;;;;;;;;;7.60;97.10;;;;;;4996116;28;19941;-83
2022/04/17 02:04:01;;;;;;;;;;;8.10;96.50;;;;;;5017839;23;19926;-81
2022/04/17 02:11:44;;;;;;;;;;;6.60;95.60;;;;;;5214030;23;19922;-81
2022/04/17 02:14:10;;;;;;;;;;;6.50;96.00;;;;;;5009777;23;19926;-83
2022/04/17 02:16:57;;;;;;;;;;;7.70;97.30;;;;;;5010572;28;19933;-82
2022/04/17 02:19:41;;;;;;;;;;;7.40;96.40;;;;;;5013984;28;19941;-80
2022/04/17 03:23:02;;;;;;;;;;;6.40;92.40;;;;;;6042584;22;19950;-80
2022/04/17 03:25:29;;;;;;;;;;;7.10;92.80;;;;;;5018275;28;19951;-81
2022/04/17 03:27:55;;;;;;;;;;;5.00;92.60;;;;;;5018030;28;19897;-80
2022/04/17 03:30:21;;;;;;;;;;;6.40;92.90;;;;;;5035445;28;19906;-81
2022/04/17 03:32:49;;;;;;;;;;;6.30;92.60;;;;;;5030033;28;19917;-80
2022/04/17 03:35:16;;;;;;;;;;;6.60;93.20;;;;;;5016290;23;19922;-80
2022/04/17 03:37:44;;;;;;;;;;;6.80;93.50;;;;;;5019902;23;19929;-83
2022/04/17 03:40:11;;;;;;;;;;;6.60;93.60;;;;;;5008389;28;19921;-80
2022/04/17 03:42:47;;;;;;;;;;;6.10;93.70;;;;;;5009352;28;19910;-82
2022/04/17 03:45:17;;;;;;;;;;;6.00;94.00;;;;;;5126092;23;19932;-81
2022/04/17 03:47:43;;;;;;;;;;;6.30;94.20;;;;;;5013442;28;19894;-82
2022/04/17 03:50:09;;;;;;;;;;;5.90;94.30;;;;;;5012161;28;19894;-80
2022/04/17 03:52:45;;;;;;;;;;;5.90;94.40;;;;;;5013480;28;19981;-82
2022/04/17 03:55:11;;;;;;;;;;;5.80;94.80;;;;;;5012172;28;19933;-82
2022/04/17 03:57:37;;;;;;;;;;;5.80;94.70;;;;;;5013886;28;19910;-81
2022/04/17 04:00:04;;;;;;;;;;;5.80;94.90;;;;;;5014604;28;19906;-79
2022/04/17 04:02:30;;;;;;;;;;;5.70;94.60;;;;;;5013994;28;19973;-82
2022/04/17 04:05:00;;;;;;;;;;;5.70;94.90;;;;;;5034504;23;19909;-81
2022/04/17 04:07:25;;;;;;;;;;;5.70;94.80;;;;;;5033753;28;19909;-81
2022/04/17 04:09:51;;;;;;;;;;;5.70;94.50;;;;;;5039018;28;20126;-80
2022/04/17 04:15:02;;;;;;;;;;;5.50;95.00;;;;;;4998462;28;19926;-80
2022/04/17 04:17:27;;;;;;;;;;;6.00;95.00;;;;;;4983965;28;19929;-79
2022/04/17 04:20:01;;;;;;;;;;;5.40;95.00;;;;;;4983555;28;19898;-82
2022/04/17 04:25:36;;;;;;;;;;;5.50;95.10;;;;;;5420126;23;19932;-82
2022/04/17 06:53:34;;;;;;;;;;;5.90;81.20;;;;;;6161738;23;19911;-78
2022/04/17 06:56:00;;;;;;;;;;;6.00;81.70;;;;;;4953486;28;19931;-78
2022/04/17 06:58:35;;;;;;;;;;;6.60;82.70;;;;;;4957464;29;19905;-78
2022/04/17 07:08:53;;;;;;;;;;;6.20;79.30;;;;;;4034342;26;19994;-80
2022/04/17 07:56:33;;;;;;;;;;;6.50;72.40;;;;;;4996650;28;19922;-81
2022/04/17 07:58:59;;;;;;;;;;;6.40;72.60;;;;;;4982167;28;19910;-79
2022/04/17 08:01:27;;;;;;;;;;;6.40;73.00;;;;;;4981793;28;19981;-82
2022/04/17 08:03:52;;;;;;;;;;;6.40;73.20;;;;;;4982368;28;19906;-80
2022/04/17 08:06:20;;;;;;;;;;;6.50;73.40;;;;;;4996767;28;19921;-79
2022/04/17 08:09:09;;;;;;;;;;;6.40;72.80;;;;;;4998151;28;19906;-81
2022/04/17 08:11:37;;;;;;;;;;;6.20;73.00;;;;;;4989873;28;19913;-83
2022/04/17 08:14:14;;;;;;;;;;;6.20;73.50;;;;;;4974335;28;20373;-80
2022/04/17 08:16:43;;;;;;;;;;;6.20;73.30;;;;;;4979169;28;20242;-82
2022/04/17 08:19:09;;;;;;;;;;;6.70;73.70;;;;;;4996488;28;19910;-84
2022/04/17 08:21:45;;;;;;;;;;;6.70;73.20;;;;;;4972088;28;19930;-82
2022/04/17 08:24:11;;;;;;;;;;;7.00;72.10;;;;;;4986140;28;19917;-80
2022/04/17 08:26:46;;;;;;;;;;;5.80;71.20;;;;;;4978119;28;19973;-80
2022/04/17 08:29:11;;;;;;;;;;;8.30;71.30;;;;;;4979460;28;19910;-80
2022/04/17 08:31:37;;;;;;;;;;;7.20;72.30;;;;;;4980739;28;19917;-80
2022/04/17 08:37:28;;;;;;;;;;;7.60;70.30;;;;;;4981728;28;20611;-79
2022/04/17 08:39:53;;;;;;;;;;;4.60;66.10;;;;;;4973398;28;19902;-79
2022/04/17 08:42:23;;;;;;;;;;;8.10;69.50;;;;;;4998544;28;19917;-79
2022/04/17 08:45:07;;;;;;;;;;;5.70;67.00;;;;;;4998022;28;19906;-79
2022/04/17 08:47:49;;;;;;;;;;;7.40;67.70;;;;;;4994724;28;19918;-80
2022/04/17 08:50:25;;;;;;;;;;;8.30;67.80;;;;;;4998125;28;19910;-79
2022/04/17 08:53:04;;;;;;;;;;;8.30;64.80;;;;;;4979319;28;19894;-80
2022/04/17 09:11:44;;;;;;;;;;;8.30;60.30;;;;;;1385909;26;19933;-82
2022/04/17 09:14:23;;;;;;;;;;;7.70;61.50;;;;;;4976895;28;19914;-85
2022/04/17 09:16:51;;;;;;;;;;;7.90;61.60;;;;;;4980817;28;19909;-81
2022/04/17 09:19:18;;;;;;;;;;;8.80;60.80;;;;;;4978706;28;19969;-80
2022/04/17 09:21:44;;;;;;;;;;;8.60;60.60;;;;;;4963831;28;19932;-82
2022/04/17 09:24:29;;;;;;;;;;;8.50;60.20;;;;;;4995476;28;19906;-81
2022/04/17 09:27:10;;;;;;;;;;;8.50;61.00;;;;;;5391483;23;19925;-83
2022/04/17 09:29:50;;;;;;;;;;;6.60;59.70;;;;;;5017278;28;19916;-82
2022/04/17 09:42:29;;;;;;;;;;;7.40;63.30;;;;;;1239259;23;2138611;-81
2022/04/17 09:44:54;;;;;;;;;;;7.50;63.20;;;;;;5027394;28;19917;-79
2022/04/17 09:47:24;;;;;;;;;;;7.60;63.20;;;;;;5020728;28;20358;-81
2022/04/17 09:50:22;;;;;;;;;;;7.60;63.20;;;;;;5000361;28;19997;-82
2022/04/17 09:52:52;;;;;;;;;;;7.60;63.50;;;;;;4917093;29;19911;-83
2022/04/17 10:01:27;;;;;;;;;;;8.50;64.10;;;;;;5368898;22;19932;-83
2022/04/17 10:07:07;;;;;;;;;;;8.20;64.00;;;;;;5037630;23;19939;-83
2022/04/17 10:09:46;;;;;;;;;;;7.30;62.50;;;;;;5019570;28;19910;-85
2022/04/17 10:12:25;;;;;;;;;;;8.30;63.90;;;;;;5033974;28;19897;-85
2022/04/17 10:14:51;;;;;;;;;;;7.50;63.50;;;;;;5021632;28;19948;-82
2022/04/17 10:17:21;;;;;;;;;;;9.10;64.40;;;;;;5027584;28;19913;-80
2022/04/17 10:19:53;;;;;;;;;;;8.60;62.80;;;;;;5013457;28;20081;-79
2022/04/17 10:22:21;;;;;;;;;;;8.70;62.90;;;;;;5011412;28;20126;-79
2022/04/17 10:24:51;;;;;;;;;;;8.80;63.00;;;;;;5012254;23;19909;-79
2022/04/17 10:27:19;;;;;;;;;;;8.70;62.30;;;;;;4996252;28;19956;-81
2022/04/17 10:29:51;;;;;;;;;;;8.80;62.90;;;;;;5030917;28;19913;-80
2022/04/17 10:32:33;;;;;;;;;;;8.80;62.70;;;;;;5010854;28;19909;-83
2022/04/17 10:35:18;;;;;;;;;;;8.70;63.30;;;;;;5034247;28;19957;-82
2022/04/17 10:38:02;;;;;;;;;;;8.60;63.40;;;;;;5035364;28;19951;-81
2022/04/17 10:40:28;;;;;;;;;;;8.70;64.00;;;;;;5015449;28;19905;-83
2022/04/17 10:42:55;;;;;;;;;;;8.80;64.20;;;;;;5015172;28;19910;-80
2022/04/17 10:45:22;;;;;;;;;;;8.80;62.70;;;;;;4998461;28;19933;-79
2022/04/17 10:48:13;;;;;;;;;;;8.90;62.40;;;;;;5004307;28;19910;-81
2022/04/17 10:50:48;;;;;;;;;;;8.70;62.50;;;;;;5033296;28;19933;-79
2022/04/17 10:53:29;;;;;;;;;;;8.40;61.70;;;;;;5012695;28;19893;-82
2022/04/17 10:56:05;;;;;;;;;;;8.50;63.00;;;;;;5005686;28;20166;-79
2022/04/17 10:58:54;;;;;;;;;;;8.30;63.00;;;;;;5028413;28;19989;-82
2022/04/17 11:01:39;;;;;;;;;;;8.30;64.00;;;;;;5030706;28;19909;-81
2022/04/17 11:04:18;;;;;;;;;;;8.30;64.10;;;;;;5025831;28;20015;-84
2022/04/17 11:06:45;;;;;;;;;;;8.30;63.70;;;;;;5007282;28;19948;-82
2022/04/17 11:09:24;;;;;;;;;;;8.30;63.20;;;;;;4991614;28;19913;-79
2022/04/17 11:11:54;;;;;;;;;;;8.50;62.20;;;;;;5032798;28;19906;-81
2022/04/17 11:14:28;;;;;;;;;;;8.70;61.60;;;;;;5034248;28;19905;-80
2022/04/17 11:19:58;;;;;;;;;;;9.50;61.20;;;;;;4681868;26;19933;-82
2022/04/17 11:22:36;;;;;;;;;;;9.90;60.90;;;;;;4998974;28;19914;-89
2022/04/17 11:25:09;;;;;;;;;;;10.30;59.10;;;;;;5002092;28;19929;-85
2022/04/17 11:28:09;;;;;;;;;;;12.20;60.00;;;;;;4999817;28;19909;-84
2022/04/17 11:30:36;;;;;;;;;;;9.80;58.50;;;;;;4991940;28;19917;-82
2022/04/17 11:33:17;;;;;;;;;;;9.20;59.10;;;;;;5015089;28;19981;-81
2022/04/17 11:35:45;;;;;;;;;;;9.10;59.30;;;;;;5017311;28;20170;-81
2022/04/17 11:38:20;;;;;;;;;;;10.80;60.00;;;;;;5008111;28;19894;-81
2022/04/17 11:40:56;;;;;;;;;;;9.40;59.40;;;;;;4997096;28;20708;-82
2022/04/17 11:43:22;;;;;;;;;;;6.60;58.70;;;;;;5037101;22;19921;-86
2022/04/17 11:46:13;;;;;;;;;;;9.30;60.40;;;;;;4998636;28;19918;-82
2022/04/17 11:48:57;;;;;;;;;;;10.30;59.70;;;;;;5011436;28;19924;-81
2022/04/17 11:51:23;;;;;;;;;;;9.30;58.60;;;;;;4994793;28;19910;-83
2022/04/17 11:53:48;;;;;;;;;;;9.10;59.60;;;;;;5004688;28;19964;-82
2022/04/17 11:56:14;;;;;;;;;;;9.00;57.10;;;;;;4994458;28;19910;-83
2022/04/17 11:58:39;;;;;;;;;;;9.70;59.30;;;;;;4993718;28;20226;-82
2022/04/17 12:01:11;;;;;;;;;;;10.40;56.10;;;;;;5005208;28;19921;-82
2022/04/17 12:03:38;;;;;;;;;;;10.90;54.90;;;;;;5004293;28;20218;-83
2022/04/17 12:06:09;;;;;;;;;;;11.40;53.50;;;;;;4979225;28;19929;-81
2022/04/17 12:08:38;;;;;;;;;;;12.10;51.50;;;;;;4995642;28;19914;-82
2022/04/17 12:11:07;;;;;;;;;;;11.60;51.60;;;;;;4971345;28;20297;-81
2022/04/17 12:13:33;;;;;;;;;;;11.50;51.10;;;;;;4986684;28;19964;-85
2022/04/17 12:16:05;;;;;;;;;;;11.80;52.30;;;;;;5015928;28;19913;-81
2022/04/17 12:18:31;;;;;;;;;;;12.50;50.10;;;;;;5005640;28;19905;-82
2022/04/17 12:23:25;;;;;;;;;;;13.50;47.70;;;;;;5670351;23;19921;-80
2022/04/17 12:28:26;;;;;;;;;;;12.70;47.60;;;;;;5108609;23;19930;-83
2022/04/17 12:30:53;;;;;;;;;;;12.20;48.10;;;;;;4976980;28;20151;-88
2022/04/17 12:33:22;;;;;;;;;;;12.50;49.10;;;;;;4996008;28;19967;-88
2022/04/17 12:36:00;;;;;;;;;;;13.20;47.60;;;;;;4994361;28;19945;-86
2022/04/17 12:38:26;;;;;;;;;;;14.20;45.70;;;;;;4985579;28;19937;-85
2022/04/17 12:40:52;;;;;;;;;;;15.00;45.10;;;;;;4965068;28;19910;-85
2022/04/17 12:43:17;;;;;;;;;;;15.40;43.60;;;;;;4982439;28;19910;-85
2022/04/17 12:46:05;;;;;;;;;;;15.50;42.70;;;;;;4969630;28;19976;-88
2022/04/17 12:48:32;;;;;;;;;;;15.00;41.60;;;;;;4983397;28;19913;-86
2022/04/17 12:51:03;;;;;;;;;;;14.50;42.90;;;;;;4965456;28;19906;-86
2022/04/17 12:53:42;;;;;;;;;;;13.60;43.60;;;;;;4983702;28;19936;-83
2022/04/17 12:56:08;;;;;;;;;;;13.00;43.90;;;;;;4986621;28;19952;-86
2022/04/17 12:58:50;;;;;;;;;;;12.70;46.10;;;;;;4986782;28;19918;-85
2022/04/17 13:01:37;;;;;;;;;;;12.70;44.00;;;;;;4983167;28;19914;-89
2022/04/17 13:04:06;;;;;;;;;;;13.30;45.60;;;;;;4981953;28;19932;-85
2022/04/17 13:06:32;;;;;;;;;;;14.30;45.50;;;;;;4982917;28;19965;-83
2022/04/17 13:09:24;;;;;;;;;;;14.90;42.00;;;;;;4982830;28;20594;-83
2022/04/17 13:11:53;;;;;;;;;;;14.80;41.10;;;;;;4867633;29;19911;-85
2022/04/17 13:14:20;;;;;;;;;;;14.40;41.70;;;;;;4883721;29;19911;-84
2022/04/17 13:16:47;;;;;;;;;;;14.30;42.00;;;;;;4867918;29;19912;-84
2022/04/17 13:19:12;;;;;;;;;;;13.90;42.00;;;;;;4882762;29;19942;-85
2022/04/17 13:21:38;;;;;;;;;;;13.90;43.20;;;;;;4881575;29;19995;-84
2022/04/17 13:24:04;;;;;;;;;;;13.80;43.20;;;;;;4866516;29;19915;-84
2022/04/17 13:26:29;;;;;;;;;;;13.90;43.50;;;;;;4950445;23;19937;-86
2022/04/17 13:28:58;;;;;;;;;;;13.80;43.70;;;;;;4961438;28;19972;-87
2022/04/17 13:31:28;;;;;;;;;;;11.90;42.80;;;;;;4961078;28;20512;-84
2022/04/17 13:34:13;;;;;;;;;;;13.20;44.30;;;;;;4945396;28;19906;-81
2022/04/17 13:36:45;;;;;;;;;;;12.90;44.50;;;;;;4961503;28;19910;-82
2022/04/17 13:39:20;;;;;;;;;;;13.30;46.00;;;;;;4967183;28;19957;-89
2022/04/17 13:41:52;;;;;;;;;;;13.20;46.00;;;;;;4960175;28;19914;-89
2022/04/17 13:44:18;;;;;;;;;;;14.10;45.40;;;;;;4961360;28;19911;-86
2022/04/17 13:46:43;;;;;;;;;;;14.60;41.50;;;;;;4961756;28;19914;-85
2022/04/17 13:49:09;;;;;;;;;;;14.70;42.50;;;;;;4962773;28;19917;-88
2022/04/17 13:51:39;;;;;;;;;;;14.70;42.60;;;;;;4962033;28;19910;-85
2022/04/17 13:54:04;;;;;;;;;;;14.50;42.20;;;;;;4963231;28;19914;-83
2022/04/17 13:56:30;;;;;;;;;;;14.50;42.70;;;;;;4979700;28;19921;-86
2022/04/17 13:58:55;;;;;;;;;;;14.60;41.20;;;;;;4963828;28;19968;-84
2022/04/17 14:12:06;;;;;;;;;;;14.70;41.50;;;;;;6018579;22;2382698;-85
2022/04/17 14:14:44;;;;;;;;;;;16.80;38.10;;;;;;6155792;23;20115;-83
2022/04/17 14:17:19;;;;;;;;;;;16.50;38.60;;;;;;6165783;23;19963;-83
2022/04/17 14:19:45;;;;;;;;;;;16.30;39.30;;;;;;6118887;23;19913;-83
2022/04/17 14:22:24;;;;;;;;;;;15.30;40.60;;;;;;6143147;23;20530;-86
2022/04/17 14:24:52;;;;;;;;;;;15.00;40.80;;;;;;6119341;23;19905;-88
2022/04/17 14:27:18;;;;;;;;;;;14.60;41.60;;;;;;6119475;23;19972;-85
2022/04/17 14:29:53;;;;;;;;;;;14.60;41.40;;;;;;6119325;23;19995;-86
2022/04/17 14:34:49;;;;;;;;;;;14.20;42.10;;;;;;6178034;23;19927;-88
2022/04/17 14:37:22;;;;;;;;;;;14.50;42.00;;;;;;6151187;23;20517;-87
2022/04/17 14:39:48;;;;;;;;;;;15.00;42.00;;;;;;6177027;23;20224;-81
2022/04/17 14:42:13;;;;;;;;;;;15.70;41.00;;;;;;6182501;23;19916;-81
2022/04/17 14:44:39;;;;;;;;;;;16.20;40.40;;;;;;6180065;23;20097;-82
2022/04/17 14:47:06;;;;;;;;;;;16.90;38.60;;;;;;6179664;23;20298;-83
2022/04/17 14:49:42;;;;;;;;;;;16.90;37.90;;;;;;6204196;22;20255;-85
2022/04/17 14:52:23;;;;;;;;;;;17.60;38.10;;;;;;6197115;23;19904;-86
2022/04/17 14:54:52;;;;;;;;;;;13.60;37.10;;;;;;6205785;23;19904;-89
2022/04/17 14:57:18;;;;;;;;;;;17.50;40.30;;;;;;6184819;23;19908;-89
2022/04/17 14:59:46;;;;;;;;;;;15.90;40.00;;;;;;6183113;23;19916;-88
2022/04/17 15:04:57;;;;;;;;;;;16.00;41.00;;;;;;6177135;23;20393;-87
2022/04/17 15:07:35;;;;;;;;;;;15.30;40.30;;;;;;6175197;23;19962;-87
2022/04/17 15:10:04;;;;;;;;;;;15.80;40.30;;;;;;6178396;23;20507;-89
2022/04/17 15:12:32;;;;;;;;;;;14.60;42.00;;;;;;6172500;23;19900;-88
2022/04/17 15:15:00;;;;;;;;;;;14.10;41.80;;;;;;6188485;23;19954;-90
2022/04/17 15:17:26;;;;;;;;;;;13.70;42.20;;;;;;6175535;23;19908;-87
2022/04/17 15:19:52;;;;;;;;;;;13.30;43.40;;;;;;6170707;23;19915;-83
2022/04/17 15:22:18;;;;;;;;;;;13.50;42.00;;;;;;6183946;23;19939;-84
2022/04/17 15:24:56;;;;;;;;;;;13.50;41.80;;;;;;6184460;23;19946;-85
2022/04/17 15:27:22;;;;;;;;;;;13.50;41.20;;;;;;6172936;23;20351;-82
2022/04/17 15:29:48;;;;;;;;;;;13.30;42.50;;;;;;6170807;23;19904;-87
2022/04/17 15:32:13;;;;;;;;;;;13.10;43.70;;;;;;6200610;23;19911;-83
2022/04/17 15:34:51;;;;;;;;;;;13.00;43.10;;;;;;6196219;23;19928;-83
2022/04/17 15:37:21;;;;;;;;;;;12.60;43.40;;;;;;6210628;23;19926;-82
2022/04/17 15:39:49;;;;;;;;;;;12.30;44.40;;;;;;6194616;23;19923;-86
2022/04/17 15:42:29;;;;;;;;;;;12.20;44.10;;;;;;6184414;23;19900;-86
2022/04/17 15:47:55;;;;;;;;;;;15.80;47.40;;;;;;6173256;23;20349;-82
2022/04/17 15:50:28;;;;;;;;;;;12.30;45.50;;;;;;6206493;23;19923;-82
2022/04/17 15:52:54;;;;;;;;;;;12.30;44.80;;;;;;6181310;23;19912;-86
2022/04/17 15:55:25;;;;;;;;;;;12.60;44.70;;;;;;6175439;23;19924;-90
2022/04/17 15:57:53;;;;;;;;;;;11.60;43.40;;;;;;6175307;23;20503;-84
2022/04/17 16:00:19;;;;;;;;;;;12.80;45.30;;;;;;6178415;23;19916;-85
2022/04/17 16:03:05;;;;;;;;;;;12.60;45.00;;;;;;6207749;23;19926;-86
2022/04/17 16:05:34;;;;;;;;;;;12.10;43.80;;;;;;6203364;23;20041;-83
2022/04/17 16:10:35;;;;;;;;;;;11.30;45.80;;;;;;6204472;23;19908;-82
2022/04/17 16:13:01;;;;;;;;;;;11.10;47.90;;;;;;6204020;23;19910;-82
2022/04/17 16:15:32;;;;;;;;;;;11.00;47.60;;;;;;6206587;23;19911;-81
2022/04/17 16:18:03;;;;;;;;;;;10.60;46.90;;;;;;6197175;23;19983;-81
2022/04/17 16:20:32;;;;;;;;;;;8.00;47.20;;;;;;6193682;23;19961;-81
2022/04/17 16:22:58;;;;;;;;;;;10.10;48.00;;;;;;6185745;23;19914;-81
2022/04/17 16:25:30;;;;;;;;;;;10.20;49.20;;;;;;6181948;23;19920;-81
2022/04/17 16:27:57;;;;;;;;;;;10.10;49.00;;;;;;6183350;23;19912;-84
2022/04/17 16:30:22;;;;;;;;;;;10.40;49.20;;;;;;6184401;23;19932;-82
2022/04/17 16:32:48;;;;;;;;;;;9.90;49.80;;;;;;6182182;23;19916;-82
2022/04/17 16:35:21;;;;;;;;;;;9.80;51.40;;;;;;6180977;23;19908;-81
2022/04/17 16:37:50;;;;;;;;;;;10.10;51.40;;;;;;6185841;23;19900;-82
2022/04/17 16:40:15;;;;;;;;;;;9.80;50.40;;;;;;6187824;23;19919;-81
2022/04/17 16:42:47;;;;;;;;;;;9.80;52.40;;;;;;6192565;23;19944;-85
2022/04/17 16:45:16;;;;;;;;;;;9.30;50.80;;;;;;6209531;23;19912;-82
2022/04/17 16:47:42;;;;;;;;;;;9.70;52.20;;;;;;6206698;23;19907;-83
2022/04/17 16:50:17;;;;;;;;;;;10.80;52.10;;;;;;6208174;23;19904;-85
2022/04/17 16:52:48;;;;;;;;;;;9.30;50.60;;;;;;6211155;23;19900;-82
2022/04/17 16:55:17;;;;;;;;;;;9.20;51.40;;;;;;6206459;23;19916;-82
2022/04/17 17:00:27;;;;;;;;;;;8.90;50.70;;;;;;6207303;23;19919;-81
2022/04/17 17:02:52;;;;;;;;;;;9.00;51.90;;;;;;6210503;23;19940;-85
2022/04/17 17:05:18;;;;;;;;;;;9.00;52.40;;;;;;6196622;23;19927;-85
2022/04/17 17:07:45;;;;;;;;;;;8.90;52.60;;;;;;6198438;23;19901;-82
2022/04/17 17:10:11;;;;;;;;;;;8.90;52.00;;;;;;6184747;23;20528;-85
2022/04/17 17:12:37;;;;;;;;;;;8.90;51.90;;;;;;6184505;23;20140;-82
2022/04/17 17:15:02;;;;;;;;;;;8.50;52.90;;;;;;6177019;23;19905;-80
2022/04/17 17:17:28;;;;;;;;;;;8.90;52.70;;;;;;6179300;23;20477;-80
2022/04/17 17:19:54;;;;;;;;;;;8.90;52.70;;;;;;6177205;23;19919;-81
2022/04/17 17:27:58;;;;;;;;;;;8.80;53.80;;;;;;6186908;23;19904;-87
2022/04/17 17:30:29;;;;;;;;;;;5.20;50.80;;;;;;6210717;23;19893;-85
2022/04/17 17:33:14;;;;;;;;;;;10.60;54.50;;;;;;6190283;23;19921;-82
2022/04/17 17:35:39;;;;;;;;;;;9.00;55.30;;;;;;6198602;23;19953;-81
2022/04/17 17:38:05;;;;;;;;;;;8.60;54.70;;;;;;6193232;23;19947;-79
2022/04/17 17:40:31;;;;;;;;;;;9.00;54.90;;;;;;6176132;23;19917;-81
2022/04/17 17:42:59;;;;;;;;;;;8.60;54.20;;;;;;6199306;23;19932;-82
2022/04/17 17:45:31;;;;;;;;;;;8.40;54.10;;;;;;6205281;23;19900;-80
2022/04/17 17:47:59;;;;;;;;;;;8.40;54.10;;;;;;6207400;23;19895;-82
2022/04/17 17:50:50;;;;;;;;;;;8.40;54.30;;;;;;6209509;23;19899;-83
2022/04/17 17:53:16;;;;;;;;;;;8.40;54.40;;;;;;6187676;23;19920;-82
2022/04/17 17:55:41;;;;;;;;;;;9.00;56.00;;;;;;6199952;23;19911;-83
2022/04/17 17:58:07;;;;;;;;;;;8.40;55.60;;;;;;6201181;23;19901;-82
2022/04/17 18:00:33;;;;;;;;;;;8.30;55.10;;;;;;6200631;23;19932;-83
2022/04/17 18:03:01;;;;;;;;;;;8.30;54.40;;;;;;6198744;23;19976;-82
2022/04/17 18:05:49;;;;;;;;;;;8.40;54.00;;;;;;6210614;23;19892;-83
2022/04/17 18:14:30;;;;;;;;;;;8.30;55.40;;;;;;6147423;23;19906;-83
2022/04/17 18:17:07;;;;;;;;;;;8.30;54.10;;;;;;6148674;23;19916;-83
2022/04/17 18:19:47;;;;;;;;;;;8.30;54.10;;;;;;6123344;23;19905;-83
2022/04/17 18:25:08;;;;;;;;;;;8.20;55.10;;;;;;6121406;23;19944;-81
2022/04/17 18:27:38;;;;;;;;;;;8.40;55.00;;;;;;6090036;23;19901;-82
2022/04/17 18:30:06;;;;;;;;;;;8.20;54.60;;;;;;6093835;23;19937;-82
2022/04/17 18:32:32;;;;;;;;;;;8.20;54.40;;;;;;6091745;23;19905;-83
2022/04/17 18:35:00;;;;;;;;;;;10.20;56.00;;;;;;6093409;23;19955;-83
2022/04/17 18:37:29;;;;;;;;;;;8.20;55.00;;;;;;6107563;23;19905;-85
2022/04/17 18:40:12;;;;;;;;;;;8.30;55.00;;;;;;6186151;23;19965;-82
2022/04/17 18:42:43;;;;;;;;;;;8.30;54.80;;;;;;6128759;23;19944;-83
2022/04/17 18:45:23;;;;;;;;;;;8.30;54.10;;;;;;6190167;23;19905;-84
2022/04/17 18:47:52;;;;;;;;;;;8.10;55.00;;;;;;6191029;23;19908;-82
2022/04/17 18:50:20;;;;;;;;;;;8.30;55.60;;;;;;6205931;23;19900;-80
2022/04/17 18:52:48;;;;;;;;;;;8.30;56.40;;;;;;6181247;23;19920;-84
2022/04/17 18:55:13;;;;;;;;;;;8.30;56.20;;;;;;6179783;23;19959;-83
2022/04/17 18:57:39;;;;;;;;;;;8.30;56.50;;;;;;6186935;23;19908;-82
2022/04/17 19:00:08;;;;;;;;;;;8.30;56.90;;;;;;6204760;23;19920;-80
2022/04/17 19:02:56;;;;;;;;;;;8.30;56.50;;;;;;6206367;23;19918;-81
2022/04/17 19:05:22;;;;;;;;;;;8.30;55.10;;;;;;6207988;23;19908;-81
2022/04/17 19:07:49;;;;;;;;;;;8.20;55.80;;;;;;6180157;23;19927;-82
2022/04/17 19:10:24;;;;;;;;;;;8.20;55.70;;;;;;6176388;23;19923;-82
2022/04/17 19:15:34;;;;;;;;;;;8.20;55.90;;;;;;6202570;23;19936;-82
2022/04/17 19:18:00;;;;;;;;;;;8.30;56.30;;;;;;6175974;23;20130;-82
2022/04/17 19:20:25;;;;;;;;;;;8.10;55.20;;;;;;6169370;23;19916;-81
2022/04/17 19:22:51;;;;;;;;;;;8.10;55.20;;;;;;6201643;23;19900;-81
2022/04/17 19:25:18;;;;;;;;;;;8.10;56.50;;;;;;6165856;23;19912;-82
2022/04/17 19:27:44;;;;;;;;;;;8.10;56.00;;;;;;6161882;23;19919;-83
2022/04/17 19:30:12;;;;;;;;;;;8.10;56.00;;;;;;6206868;23;19909;-80
2022/04/17 19:35:26;;;;;;;;;;;8.10;55.40;;;;;;6205751;23;19895;-82
2022/04/17 19:37:56;;;;;;;;;;;8.30;55.80;;;;;;6182062;23;19910;-83
2022/04/17 19:40:26;;;;;;;;;;;8.30;56.20;;;;;;6203812;23;19904;-82
2022/04/17 19:42:55;;;;;;;;;;;8.00;56.40;;;;;;6208664;23;19903;-82
2022/04/17 19:45:28;;;;;;;;;;;8.00;56.40;;;;;;6201848;23;19916;-82
2022/04/17 19:47:55;;;;;;;;;;;10.80;57.50;;;;;;6178446;23;19927;-78
2022/04/17 19:50:20;;;;;;;;;;;8.10;56.60;;;;;;6207148;23;19905;-81
2022/04/17 19:52:47;;;;;;;;;;;7.90;55.90;;;;;;6209740;23;19904;-81
2022/04/17 19:55:13;;;;;;;;;;;7.90;55.80;;;;;;6208775;23;19901;-82
2022/04/17 19:57:39;;;;;;;;;;;7.90;55.90;;;;;;6204589;23;19950;-80
2022/04/17 20:00:06;;;;;;;;;;;7.90;56.00;;;;;;6206924;23;19923;-82
2022/04/17 20:02:32;;;;;;;;;;;5.80;55.50;;;;;;6157111;23;19908;-79
2022/04/17 20:04:59;;;;;;;;;;;7.90;56.70;;;;;;6176800;23;19905;-82
2022/04/17 20:07:25;;;;;;;;;;;7.70;57.10;;;;;;6173748;23;19945;-79
2022/04/17 20:09:51;;;;;;;;;;;7.80;55.20;;;;;;6179370;23;19904;-79
2022/04/17 20:12:16;;;;;;;;;;;7.70;55.50;;;;;;6206630;23;19900;-81
2022/04/17 20:14:42;;;;;;;;;;;7.70;55.60;;;;;;6179225;23;19888;-81
2022/04/17 20:17:11;;;;;;;;;;;7.70;56.40;;;;;;6174347;23;19953;-79
2022/04/17 20:19:36;;;;;;;;;;;7.60;55.30;;;;;;6205956;23;19908;-81
2022/04/17 20:22:04;;;;;;;;;;;7.60;55.70;;;;;;6180309;23;19889;-83
2022/04/17 20:24:30;;;;;;;;;;;7.50;56.10;;;;;;6208126;23;19919;-83
2022/04/17 20:26:58;;;;;;;;;;;7.60;55.90;;;;;;6178683;23;19951;-80
2022/04/17 20:29:37;;;;;;;;;;;7.60;54.50;;;;;;6207934;23;19888;-82
2022/04/17 20:32:18;;;;;;;;;;;7.70;55.00;;;;;;6141636;23;19900;-84
2022/04/17 20:34:43;;;;;;;;;;;4.60;53.30;;;;;;6204450;23;19888;-82
2022/04/17 20:37:11;;;;;;;;;;;7.00;56.80;;;;;;6181622;23;20031;-83
2022/04/17 20:39:36;;;;;;;;;;;7.90;55.50;;;;;;6178664;23;20058;-80
2022/04/17 20:42:21;;;;;;;;;;;8.00;55.80;;;;;;6204255;23;19889;-81
2022/04/17 20:53:07;;;;;;;;;;;7.50;56.00;;;;;;6179262;23;19920;-83
2022/04/17 20:55:44;;;;;;;;;;;7.80;55.40;;;;;;6175053;23;19904;-85
2022/04/17 20:58:10;;;;;;;;;;;8.50;56.50;;;;;;6146538;23;19965;-84
2022/04/17 21:00:37;;;;;;;;;;;7.30;55.90;;;;;;6175415;23;19901;-83
2022/04/17 21:03:14;;;;;;;;;;;7.30;54.80;;;;;;6147933;23;19908;-82
2022/04/17 21:06:18;;;;;;;;;;;7.00;55.20;;;;;;6146908;23;19899;-82
2022/04/17 21:08:49;;;;;;;;;;;7.60;56.00;;;;;;6082356;23;19906;-81
2022/04/17 21:11:21;;;;;;;;;;;7.10;55.50;;;;;;6085496;23;19901;-82
2022/04/17 21:13:49;;;;;;;;;;;7.30;55.40;;;;;;6038057;23;19925;-83
2022/04/17 21:16:18;;;;;;;;;;;7.10;55.50;;;;;;6084222;23;19910;-83
2022/04/17 21:18:44;;;;;;;;;;;6.60;55.60;;;;;;6121599;23;19950;-81
2022/04/17 21:21:09;;;;;;;;;;;7.30;56.90;;;;;;6204003;23;19920;-82
2022/04/17 21:23:48;;;;;;;;;;;7.00;56.60;;;;;;6204187;23;19907;-82
2022/04/17 21:26:15;;;;;;;;;;;8.10;56.50;;;;;;6198665;23;19920;-82
2022/04/17 21:29:00;;;;;;;;;;;7.50;58.40;;;;;;6206921;23;19904;-82
2022/04/17 21:31:55;;;;;;;;;;;9.10;57.40;;;;;;6207934;23;19911;-82
2022/04/17 21:34:48;;;;;;;;;;;6.10;56.10;;;;;;6179644;23;19912;-82
2022/04/17 21:37:32;;;;;;;;;;;7.10;57.70;;;;;;6175461;23;19916;-80